createdAt,value
2023-03-25T00:00:29.974Z,11.33
2023-03-25T00:03:12.165Z,11.35
2023-03-25T00:05:51.843Z,11.36
2023-03-25T00:08:34.117Z,11.38
2023-03-25T00:11:14.695Z,11.39
2023-03-25T00:13:59.327Z,11.42
2023-03-25T00:16:39.009Z,11.46
2023-03-25T00:19:18.378Z,11.49
2023-03-25T00:21:57.811Z,11.51
2023-03-25T00:24:37.455Z,11.53
2023-03-25T00:27:18.852Z,11.54
2023-03-25T00:30:03.268Z,11.54
2023-03-25T00:32:42.733Z,11.52
2023-03-25T00:35:22.431Z,11.48
2023-03-25T00:38:04.288Z,11.42
2023-03-25T00:40:43.554Z,11.37
2023-03-25T00:43:22.907Z,11.32
2023-03-25T00:46:08.174Z,11.27
2023-03-25T00:48:47.763Z,11.18
2023-03-25T00:51:27.784Z,11.13
2023-03-25T00:54:07.586Z,11.08
2023-03-25T00:56:46.932Z,11.01
2023-03-25T00:59:26.639Z,10.95
2023-03-25T01:02:11.544Z,10.90
2023-03-25T01:04:51.034Z,10.83
2023-03-25T01:07:30.624Z,10.77
2023-03-25T01:10:11.374Z,10.73
2023-03-25T01:12:50.667Z,10.67
2023-03-25T01:15:30.209Z,10.63
2023-03-25T01:18:14.578Z,10.60
2023-03-25T01:20:53.946Z,10.58
2023-03-25T01:23:33.270Z,10.56
2023-03-25T01:26:14.246Z,10.54
2023-03-25T01:28:55.184Z,10.53
2023-03-25T01:31:35.076Z,10.51
2023-03-25T01:34:20.027Z,10.51
2023-03-25T01:36:59.690Z,10.50
2023-03-25T01:39:39.025Z,10.49
2023-03-25T01:42:19.662Z,10.49
2023-03-25T01:45:23.218Z,10.48
2023-03-25T01:48:13.433Z,10.47
2023-03-25T01:51:03.249Z,10.44
2023-03-25T01:53:42.729Z,10.42
2023-03-25T01:56:27.860Z,10.40
2023-03-25T01:59:13.122Z,10.37
2023-03-25T02:01:54.729Z,10.36
2023-03-25T02:04:45.407Z,10.33
2023-03-25T02:07:32.249Z,10.31
2023-03-25T02:10:15.246Z,10.31
2023-03-25T02:12:54.567Z,10.31
2023-03-25T02:15:34.241Z,10.31
2023-03-25T02:18:33.718Z,10.31
2023-03-25T02:21:51.379Z,10.32
2023-03-25T02:25:08.782Z,10.28
2023-03-25T02:28:00.503Z,10.25
2023-03-25T02:31:08.020Z,10.23
2023-03-25T02:34:35.266Z,10.21
2023-03-25T02:37:48.333Z,10.18
2023-03-25T02:40:40.062Z,10.15
2023-03-25T02:43:26.092Z,10.11
2023-03-25T02:46:11.699Z,10.08
2023-03-25T02:49:00.470Z,10.07
2023-03-25T02:51:44.020Z,10.02
2023-03-25T02:54:26.695Z,9.96
2023-03-25T02:57:12.389Z,9.84
2023-03-25T02:59:55.379Z,9.65
2023-03-25T03:02:39.106Z,9.51
2023-03-25T03:05:31.191Z,9.42
2023-03-25T03:08:33.735Z,9.37
2023-03-25T03:11:22.858Z,9.33
2023-03-25T03:14:27.283Z,9.30
2023-03-25T03:17:14.865Z,9.20
2023-03-25T03:20:01.605Z,9.15
2023-03-25T03:22:53.740Z,9.13
2023-03-25T03:25:40.165Z,9.12
2023-03-25T03:28:30.222Z,9.11
2023-03-25T03:31:50.871Z,9.10
2023-03-25T03:34:35.710Z,9.10
2023-03-25T03:37:19.366Z,9.07
2023-03-25T03:40:02.926Z,9.04
2023-03-25T03:42:47.807Z,8.99
2023-03-25T03:45:34.790Z,8.91
2023-03-25T03:48:28.318Z,8.86
2023-03-25T03:51:14.472Z,8.82
2023-03-25T03:54:01.731Z,8.79
2023-03-25T03:56:47.718Z,8.77
2023-03-25T03:59:35.831Z,8.74
2023-03-25T04:02:28.634Z,8.70
2023-03-25T04:05:14.928Z,8.70
2023-03-25T04:08:01.258Z,8.69
2023-03-25T04:10:53.804Z,8.68
2023-03-25T04:13:41.815Z,8.69
2023-03-25T04:16:21.502Z,8.71
2023-03-25T04:19:00.905Z,8.71
2023-03-25T04:21:45.308Z,8.71
2023-03-25T04:24:26.485Z,8.72
2023-03-25T04:27:06.135Z,8.72
2023-03-25T04:29:45.708Z,8.72
2023-03-25T04:32:25.434Z,8.72
2023-03-25T04:35:07.895Z,8.73
2023-03-25T04:37:55.579Z,8.72
2023-03-25T04:40:34.903Z,8.73
2023-03-25T04:43:14.355Z,8.72
2023-03-25T04:45:55.785Z,8.71
2023-03-25T04:48:42.607Z,8.71
2023-03-25T04:51:24.632Z,8.73
2023-03-25T04:54:09.054Z,8.75
2023-03-25T04:56:48.941Z,8.76
2023-03-25T04:59:28.625Z,8.77
2023-03-25T05:02:10.050Z,8.76
2023-03-25T05:04:49.476Z,8.76
2023-03-25T05:07:31.173Z,8.76
2023-03-25T05:10:16.467Z,8.74
2023-03-25T05:12:56.054Z,8.73
2023-03-25T05:15:36.792Z,8.71
2023-03-25T05:18:18.996Z,8.67
2023-03-25T05:20:58.335Z,8.66
2023-03-25T05:23:37.725Z,8.63
2023-03-25T05:26:22.405Z,8.63
2023-03-25T05:29:02.912Z,8.62
2023-03-25T05:31:43.589Z,8.61
2023-03-25T05:34:23.536Z,8.61
2023-03-25T05:37:02.937Z,8.61
2023-03-25T05:39:43.973Z,8.64
2023-03-25T05:42:30.118Z,8.66
2023-03-25T05:45:09.600Z,8.67
2023-03-25T05:47:49.328Z,8.68
2023-03-25T05:50:29.422Z,8.68
2023-03-25T05:53:08.712Z,8.65
2023-03-25T05:55:48.909Z,8.63
2023-03-25T05:58:33.708Z,8.62
2023-03-25T06:01:31.282Z,8.62
2023-03-25T06:04:14.076Z,8.63
2023-03-25T06:06:53.547Z,8.66
2023-03-25T06:09:36.282Z,8.70
2023-03-25T06:12:15.795Z,8.73
2023-03-25T06:15:00.315Z,8.77
2023-03-25T06:17:40.050Z,8.80
2023-03-25T06:20:21.773Z,8.82
2023-03-25T06:23:01.188Z,8.83
2023-03-25T06:25:40.532Z,8.85
2023-03-25T06:28:20.028Z,8.84
2023-03-25T06:31:08.420Z,8.85
2023-03-25T06:33:47.865Z,8.89
2023-03-25T06:36:27.546Z,8.93
2023-03-25T06:39:07.019Z,8.97
2023-03-25T06:41:46.322Z,9.01
2023-03-25T06:44:25.818Z,9.06
2023-03-25T06:47:10.285Z,9.13
2023-03-25T06:49:49.810Z,9.17
2023-03-25T06:52:29.283Z,9.22
2023-03-25T06:55:08.753Z,9.28
2023-03-25T06:57:48.226Z,9.34
2023-03-25T07:00:29.679Z,9.41
2023-03-25T07:03:14.178Z,9.53
2023-03-25T07:05:55.234Z,9.65
2023-03-25T07:08:34.621Z,9.70
2023-03-25T07:11:16.144Z,9.66
2023-03-25T07:13:55.435Z,9.55
2023-03-25T07:16:35.344Z,9.41
2023-03-25T07:19:19.789Z,9.36
2023-03-25T07:21:59.129Z,9.33
2023-03-25T07:24:38.455Z,9.32
2023-03-25T07:27:19.011Z,9.32
2023-03-25T07:29:58.541Z,9.33
2023-03-25T07:32:38.138Z,9.39
2023-03-25T07:35:22.865Z,9.44
2023-03-25T07:38:02.317Z,9.53
2023-03-25T07:40:41.621Z,9.66
2023-03-25T07:43:21.111Z,9.71
2023-03-25T07:46:01.674Z,9.71
2023-03-25T07:48:42.601Z,9.69
2023-03-25T07:51:27.141Z,9.70
2023-03-25T07:54:06.634Z,9.72
2023-03-25T07:56:46.032Z,9.73
2023-03-25T07:59:26.950Z,9.74
2023-03-25T08:02:07.515Z,9.86
2023-03-25T08:04:47.814Z,9.99
2023-03-25T08:07:32.384Z,10.16
2023-03-25T08:10:12.564Z,10.28
2023-03-25T08:12:52.419Z,10.35
2023-03-25T08:15:31.839Z,10.40
2023-03-25T08:18:11.740Z,10.45
2023-03-25T08:20:51.208Z,10.52
2023-03-25T08:23:38.114Z,10.59
2023-03-25T08:26:17.634Z,10.69
2023-03-25T08:28:58.935Z,10.81
2023-03-25T08:31:40.462Z,10.91
2023-03-25T08:34:21.113Z,10.98
2023-03-25T08:37:00.473Z,11.05
2023-03-25T08:39:46.343Z,11.14
2023-03-25T08:42:25.701Z,11.19
2023-03-25T08:45:05.161Z,11.23
2023-03-25T08:47:44.558Z,11.36
2023-03-25T08:50:24.248Z,11.47
2023-03-25T08:53:04.401Z,11.52
2023-03-25T08:55:49.010Z,11.55
2023-03-25T08:58:29.413Z,11.57
2023-03-25T09:01:08.790Z,11.56
2023-03-25T09:03:48.197Z,11.55
2023-03-25T09:06:27.531Z,11.54
2023-03-25T09:09:06.872Z,11.52
2023-03-25T09:11:52.169Z,11.47
2023-03-25T09:14:31.485Z,11.44
2023-03-25T09:17:12.612Z,11.45
2023-03-25T09:19:53.647Z,11.57
2023-03-25T09:22:34.047Z,11.75
2023-03-25T09:25:15.197Z,11.92
2023-03-25T09:27:59.729Z,12.03
2023-03-25T09:30:39.108Z,12.21
2023-03-25T09:33:18.589Z,12.48
2023-03-25T09:35:58.264Z,12.63
2023-03-25T09:38:37.903Z,12.74
2023-03-25T09:41:36.879Z,12.76
2023-03-25T09:44:28.955Z,12.68
2023-03-25T09:47:10.565Z,12.57
2023-03-25T09:50:01.745Z,12.32
2023-03-25T09:52:52.248Z,12.10
2023-03-25T09:55:36.034Z,11.89
2023-03-25T09:58:34.822Z,11.70
2023-03-25T10:01:29.468Z,11.46
2023-03-25T10:04:26.332Z,11.37
2023-03-25T10:07:20.810Z,11.26
2023-03-25T10:10:14.604Z,11.21
2023-03-25T10:13:02.012Z,11.23
2023-03-25T10:15:48.369Z,11.27
2023-03-25T10:18:50.730Z,11.35
2023-03-25T10:21:40.589Z,11.41
2023-03-25T10:24:26.370Z,11.42
2023-03-25T10:27:10.331Z,11.41
2023-03-25T10:29:58.216Z,11.38
2023-03-25T10:32:45.620Z,11.33
2023-03-25T10:35:34.959Z,11.28
2023-03-25T10:38:22.173Z,11.31
2023-03-25T10:41:14.572Z,11.63
2023-03-25T10:43:54.499Z,12.32
2023-03-25T10:46:40.976Z,12.58
2023-03-25T10:49:24.562Z,12.57
2023-03-25T10:52:09.483Z,12.49
2023-03-25T10:54:51.756Z,12.33
2023-03-25T10:57:35.375Z,12.14
2023-03-25T11:00:24.513Z,12.02
2023-03-25T11:03:06.512Z,11.91
2023-03-25T11:05:46.860Z,11.81
2023-03-25T11:08:31.424Z,11.66
2023-03-25T11:11:13.034Z,11.53
2023-03-25T11:13:52.971Z,11.49
2023-03-25T11:16:32.474Z,11.49
2023-03-25T11:19:12.671Z,11.48
2023-03-25T11:21:55.322Z,11.51
2023-03-25T11:24:47.613Z,11.56
2023-03-25T11:27:31.730Z,11.59
2023-03-25T11:30:21.745Z,11.60
2023-03-25T11:33:13.277Z,11.59
2023-03-25T11:35:52.946Z,11.61
2023-03-25T11:38:37.715Z,11.64
2023-03-25T11:41:22.287Z,11.63
2023-03-25T11:44:01.793Z,11.58
2023-03-25T11:46:48.570Z,11.55
2023-03-25T11:49:30.896Z,11.52
2023-03-25T11:52:14.548Z,11.53
2023-03-25T11:54:54.300Z,11.52
2023-03-25T11:57:47.461Z,11.49
2023-03-25T12:00:45.825Z,11.41
2023-03-25T12:03:28.673Z,11.27
2023-03-25T12:06:12.735Z,11.14
2023-03-25T12:08:57.695Z,11.04
2023-03-25T12:11:44.040Z,11.03
2023-03-25T12:14:41.872Z,11.16
2023-03-25T12:17:34.796Z,11.22
2023-03-25T12:20:31.009Z,11.32
2023-03-25T12:23:15.320Z,11.83
2023-03-25T12:26:08.663Z,12.11
2023-03-25T12:29:09.337Z,12.42
2023-03-25T12:32:09.078Z,12.68
2023-03-25T12:35:03.897Z,12.99
2023-03-25T12:37:59.320Z,13.48
2023-03-25T12:40:57.263Z,13.46
2023-03-25T12:43:51.498Z,13.18
2023-03-25T12:46:53.715Z,12.93
2023-03-25T12:50:00.702Z,12.74
2023-03-25T12:52:51.426Z,12.66
2023-03-25T12:55:58.683Z,12.66
2023-03-25T12:59:03.630Z,12.56
2023-03-25T13:01:56.690Z,12.72
2023-03-25T13:05:02.677Z,13.02
2023-03-25T13:07:47.679Z,13.96
2023-03-25T13:10:29.078Z,13.96
2023-03-25T13:13:13.536Z,14.27
2023-03-25T13:15:57.574Z,14.29
2023-03-25T13:18:45.988Z,14.14
2023-03-25T13:21:36.421Z,13.87
2023-03-25T13:24:23.613Z,13.92
2023-03-25T13:27:07.480Z,14.29
2023-03-25T13:29:51.630Z,15.10
2023-03-25T13:32:37.620Z,14.75
2023-03-25T13:35:25.716Z,17.71
2023-03-25T13:38:19.376Z,16.56
2023-03-25T13:41:12.592Z,15.55
2023-03-25T13:44:03.788Z,15.22
2023-03-25T13:46:48.534Z,17.69
2023-03-25T13:49:36.055Z,17.02
2023-03-25T13:52:16.034Z,15.39
2023-03-25T13:55:10.030Z,14.32
2023-03-25T13:58:18.599Z,14.00
2023-03-25T14:01:31.577Z,13.96
2023-03-25T14:04:41.667Z,13.84
2023-03-25T14:08:00.803Z,13.63
2023-03-25T14:11:06.330Z,13.51
2023-03-25T14:13:52.434Z,13.46
2023-03-25T14:16:37.132Z,13.46
2023-03-25T14:19:22.329Z,13.45
2023-03-25T14:22:02.335Z,15.01
2023-03-25T14:24:43.397Z,17.92
2023-03-25T14:27:33.805Z,17.08
2023-03-25T14:30:26.135Z,16.42
2023-03-25T14:33:06.951Z,16.17
2023-03-25T14:35:58.451Z,16.51
2023-03-25T14:39:07.849Z,17.78
2023-03-25T14:42:03.373Z,17.09
2023-03-25T14:44:51.035Z,16.74
2023-03-25T14:47:36.581Z,15.86
2023-03-25T14:50:42.466Z,16.99
2023-03-25T14:53:22.052Z,19.06
2023-03-25T14:56:03.612Z,19.43
2023-03-25T14:58:46.812Z,19.58
2023-03-25T15:01:43.123Z,18.00
2023-03-25T15:04:33.819Z,17.37
2023-03-25T15:07:21.295Z,17.57
2023-03-25T15:10:03.027Z,17.99
2023-03-25T15:12:46.109Z,18.02
2023-03-25T15:15:38.954Z,17.74
2023-03-25T15:18:58.904Z,17.97
2023-03-25T15:21:40.976Z,18.18
2023-03-25T15:24:23.986Z,18.46
2023-03-25T15:27:06.890Z,18.04
2023-03-25T15:30:04.619Z,17.02
2023-03-25T15:32:59.533Z,17.02
2023-03-25T15:36:05.445Z,17.26
2023-03-25T15:38:59.319Z,17.52
2023-03-25T15:42:07.650Z,17.70
2023-03-25T15:45:21.550Z,17.87
2023-03-25T15:48:26.161Z,17.93
2023-03-25T15:51:23.360Z,17.82
2023-03-25T15:54:27.663Z,17.81
2023-03-25T15:57:12.586Z,16.78
2023-03-25T15:59:58.805Z,15.53
2023-03-25T16:02:44.203Z,15.27
2023-03-25T16:05:25.938Z,15.08
2023-03-25T16:08:18.700Z,14.95
2023-03-25T16:10:58.029Z,14.80
2023-03-25T16:13:37.432Z,14.64
2023-03-25T16:16:20.068Z,14.54
2023-03-25T16:18:59.555Z,14.48
2023-03-25T16:21:40.056Z,14.44
2023-03-25T16:24:27.985Z,14.39
2023-03-25T16:27:17.338Z,14.34
2023-03-25T16:29:58.334Z,14.28
2023-03-25T16:32:41.578Z,14.19
2023-03-25T16:35:28.238Z,14.10
2023-03-25T16:38:09.982Z,14.01
2023-03-25T16:40:56.467Z,13.97
2023-03-25T16:43:38.803Z,13.95
2023-03-25T16:46:21.732Z,13.90
2023-03-25T16:49:02.619Z,13.84
2023-03-25T16:51:42.604Z,13.88
2023-03-25T16:54:34.164Z,13.97
2023-03-25T16:57:25.226Z,14.05
2023-03-25T17:00:12.716Z,14.05
2023-03-25T17:02:55.258Z,14.03
2023-03-25T17:05:37.234Z,13.98
2023-03-25T17:08:18.742Z,13.90
2023-03-25T17:11:02.633Z,13.79
2023-03-25T17:13:53.248Z,13.70
2023-03-25T17:16:36.505Z,13.60
2023-03-25T17:19:24.354Z,13.54
2023-03-25T17:22:22.460Z,13.48
2023-03-25T17:25:04.065Z,13.42
2023-03-25T17:27:45.669Z,13.39
2023-03-25T17:30:49.853Z,13.37
2023-03-25T17:33:40.879Z,13.33
2023-03-25T17:36:21.051Z,13.28
2023-03-25T17:39:03.643Z,13.25
2023-03-25T17:41:46.176Z,13.21
2023-03-25T17:44:27.093Z,13.18
2023-03-25T17:47:12.847Z,13.12
2023-03-25T17:49:52.468Z,13.08
2023-03-25T17:52:32.320Z,13.02
2023-03-25T17:55:12.288Z,12.98
2023-03-25T17:57:51.796Z,12.96
2023-03-25T18:00:34.301Z,12.92
2023-03-25T18:03:24.022Z,12.91
2023-03-25T18:06:03.718Z,12.89
2023-03-25T18:08:43.330Z,12.89
2023-03-25T18:11:23.175Z,12.88
2023-03-25T18:14:02.562Z,12.86
2023-03-25T18:16:42.097Z,12.87
2023-03-25T18:19:28.873Z,12.87
2023-03-25T18:22:19.820Z,12.87
2023-03-25T18:24:59.810Z,12.83
2023-03-25T18:27:43.886Z,12.76
2023-03-25T18:30:28.724Z,12.67
2023-03-25T18:33:08.204Z,12.56
2023-03-25T18:35:53.760Z,12.43
2023-03-25T18:38:35.062Z,12.24
2023-03-25T18:41:15.515Z,12.04
2023-03-25T18:43:54.812Z,11.90
2023-03-25T18:46:34.232Z,11.78
2023-03-25T18:49:19.845Z,11.69
2023-03-25T18:52:04.352Z,11.59
2023-03-25T18:54:43.678Z,11.49
2023-03-25T18:57:25.335Z,11.39
2023-03-25T19:00:05.118Z,11.24
2023-03-25T19:02:44.566Z,11.11
2023-03-25T19:05:24.429Z,11.02
2023-03-25T19:08:08.862Z,10.94
2023-03-25T19:10:48.182Z,10.88
2023-03-25T19:13:27.524Z,10.84
2023-03-25T19:16:07.005Z,10.82
2023-03-25T19:18:48.180Z,10.80
2023-03-25T19:21:28.010Z,10.77
2023-03-25T19:24:12.803Z,10.73
2023-03-25T19:26:52.693Z,10.70
2023-03-25T19:29:32.489Z,10.68
2023-03-25T19:32:12.407Z,10.66
2023-03-25T19:34:52.738Z,10.67
2023-03-25T19:37:36.376Z,10.67
2023-03-25T19:40:23.523Z,10.65
2023-03-25T19:43:06.662Z,10.63
2023-03-25T19:45:46.118Z,10.60
2023-03-25T19:48:25.423Z,10.56
2023-03-25T19:51:05.540Z,10.55
2023-03-25T19:53:44.854Z,10.53
2023-03-25T19:56:29.485Z,10.50
2023-03-25T19:59:09.052Z,10.47
2023-03-25T20:01:48.434Z,10.45
2023-03-25T20:04:27.807Z,10.43
2023-03-25T20:07:07.302Z,10.41
2023-03-25T20:09:46.838Z,10.40
2023-03-25T20:12:31.458Z,10.39
2023-03-25T20:15:11.231Z,10.39
2023-03-25T20:17:50.642Z,10.39
2023-03-25T20:20:31.228Z,10.40
2023-03-25T20:23:10.549Z,10.39
2023-03-25T20:25:50.234Z,10.38
2023-03-25T20:28:34.737Z,10.38
2023-03-25T20:31:22.858Z,10.38
2023-03-25T20:34:02.796Z,10.39
2023-03-25T20:36:42.139Z,10.41
2023-03-25T20:39:21.739Z,10.44
2023-03-25T20:42:01.057Z,10.46
2023-03-25T20:44:45.963Z,10.48
2023-03-25T20:47:25.309Z,10.50
2023-03-25T20:50:04.845Z,10.52
2023-03-25T20:52:45.016Z,10.53
2023-03-25T20:55:24.879Z,10.53
2023-03-25T20:58:04.274Z,10.54
2023-03-25T21:00:49.709Z,10.56
2023-03-25T21:03:29.165Z,10.57
2023-03-25T21:06:22.881Z,10.56
2023-03-25T21:09:07.629Z,10.55
2023-03-25T21:11:47.802Z,10.53
2023-03-25T21:14:27.269Z,10.49
2023-03-25T21:17:11.721Z,10.46
2023-03-25T21:19:51.508Z,10.44
2023-03-25T21:22:32.088Z,10.42
2023-03-25T21:25:12.349Z,10.39
2023-03-25T21:27:52.548Z,10.37
2023-03-25T21:30:31.904Z,10.35
2023-03-25T21:33:17.984Z,10.35
2023-03-25T21:35:59.923Z,10.35
2023-03-25T21:38:39.593Z,10.34
2023-03-25T21:41:19.841Z,10.32
2023-03-25T21:43:59.604Z,10.29
2023-03-25T21:46:39.270Z,10.23
2023-03-25T21:49:23.836Z,10.22
2023-03-25T21:52:03.170Z,10.20
2023-03-25T21:54:44.615Z,10.19
2023-03-25T21:57:24.133Z,10.18
2023-03-25T22:00:03.798Z,10.18
2023-03-25T22:02:45.464Z,10.18
2023-03-25T22:05:33.526Z,10.19
2023-03-25T22:08:13.623Z,10.20
2023-03-25T22:10:52.954Z,10.19
2023-03-25T22:13:32.336Z,10.18
2023-03-25T22:16:13.361Z,10.16
2023-03-25T22:18:53.254Z,10.16
2023-03-25T22:21:42.837Z,10.13
2023-03-25T22:24:22.348Z,10.08
2023-03-25T22:27:01.968Z,10.06
2023-03-25T22:29:41.638Z,10.05
2023-03-25T22:32:21.052Z,10.05
2023-03-25T22:35:00.554Z,10.04
2023-03-25T22:37:47.139Z,10.05
2023-03-25T22:40:27.149Z,10.06
2023-03-25T22:43:06.917Z,10.07
2023-03-25T22:45:46.318Z,10.07
2023-03-25T22:48:26.504Z,10.08
2023-03-25T22:51:06.173Z,10.09
2023-03-25T22:53:52.404Z,10.09
2023-03-25T22:56:34.998Z,10.09
2023-03-25T22:59:15.127Z,10.08
2023-03-25T23:01:54.518Z,10.07
2023-03-25T23:04:34.035Z,10.05
2023-03-25T23:07:13.450Z,10.04
2023-03-25T23:09:57.858Z,10.03
2023-03-25T23:12:37.147Z,10.02
2023-03-25T23:15:17.499Z,10.05
2023-03-25T23:17:56.890Z,10.05
2023-03-25T23:20:37.648Z,10.04
2023-03-25T23:23:18.835Z,10.04
2023-03-25T23:26:15.924Z,10.04
2023-03-25T23:28:57.684Z,10.05
2023-03-25T23:31:42.368Z,10.06
2023-03-25T23:34:24.308Z,10.08
2023-03-25T23:37:03.854Z,10.09
2023-03-25T23:39:47.340Z,10.09
2023-03-25T23:42:35.154Z,10.06
2023-03-25T23:45:16.974Z,10.05
2023-03-25T23:47:56.650Z,10.04
2023-03-25T23:50:36.621Z,10.04
2023-03-25T23:53:16.109Z,10.05
2023-03-25T23:55:57.544Z,10.06
2023-03-25T23:58:42.432Z,10.06
